createdAt,value
2018-05-02T00:00:39.753Z,4.57
2018-05-02T00:03:19.136Z,4.33
2018-05-02T00:05:46.902Z,5.30
2018-05-02T00:08:15.409Z,10.40
2018-05-02T00:10:57.524Z,4.17
2018-05-02T00:13:26.981Z,4.00
2018-05-02T00:15:57.480Z,3.13
2018-05-02T00:18:27.804Z,5.10
2018-05-02T00:20:56.118Z,3.57
2018-05-02T00:23:34.222Z,5.83
2018-05-02T00:26:08.596Z,4.20
2018-05-02T00:28:41.591Z,5.63
2018-05-02T00:31:10.869Z,3.93
2018-05-02T00:33:42.304Z,7.13
2018-05-02T00:36:14.433Z,3.27
2018-05-02T00:38:44.630Z,3.17
2018-05-02T00:41:20.787Z,4.27
2018-05-02T00:44:30.243Z,4.43
2018-05-02T00:47:00.985Z,2.80
2018-05-02T00:49:36.092Z,5.43
2018-05-02T00:52:13.974Z,4.23
2018-05-02T00:54:42.534Z,3.10
2018-05-02T00:57:18.734Z,3.73
2018-05-02T00:59:58.597Z,4.97
2018-05-02T01:02:31.558Z,5.23
2018-05-02T01:07:55.607Z,6.23
2018-05-02T01:10:24.169Z,3.50
2018-05-02T01:13:06.889Z,5.53
2018-05-02T01:15:40.533Z,6.60
2018-05-02T01:18:15.202Z,5.07
2018-05-02T01:20:47.649Z,5.83
2018-05-02T01:23:24.019Z,6.30
2018-05-02T01:25:55.632Z,6.57
2018-05-02T01:28:24.865Z,5.73
2018-05-02T01:30:54.289Z,8.00
2018-05-02T01:33:23.030Z,5.33
2018-05-02T01:35:51.900Z,5.03
2018-05-02T01:38:28.674Z,4.37
2018-05-02T01:40:58.067Z,8.90
2018-05-02T01:43:36.969Z,6.20
2018-05-02T01:46:07.322Z,5.57
2018-05-02T01:48:55.983Z,5.67
2018-05-02T01:51:24.997Z,4.57
2018-05-02T01:53:54.938Z,8.00
2018-05-02T01:56:30.485Z,8.20
2018-05-02T01:59:07.051Z,7.37
2018-05-02T02:01:39.630Z,7.93
2018-05-02T02:04:15.840Z,6.20
2018-05-02T02:06:44.322Z,7.90
2018-05-02T02:09:13.379Z,4.93
2018-05-02T02:11:40.906Z,7.37
2018-05-02T02:14:15.748Z,5.00
2018-05-02T02:20:53.000Z,7.23
2018-05-02T02:23:29.525Z,7.53
2018-05-02T02:26:12.149Z,8.97
2018-05-02T02:28:44.726Z,10.73
2018-05-02T02:31:51.210Z,6.03
2018-05-02T02:34:24.142Z,7.43
2018-05-02T02:37:07.143Z,4.93
2018-05-02T02:39:43.128Z,8.17
2018-05-02T02:42:20.745Z,7.27
2018-05-02T02:44:57.829Z,3.87
2018-05-02T02:47:46.707Z,6.83
2018-05-02T02:50:19.347Z,5.77
2018-05-02T02:52:49.722Z,7.40
2018-05-02T02:55:17.607Z,6.17
2018-05-02T02:57:56.552Z,7.90
2018-05-02T03:00:33.934Z,5.83
2018-05-02T03:03:04.571Z,9.03
2018-05-02T03:05:39.914Z,4.60
2018-05-02T03:08:18.843Z,4.43
2018-05-02T03:10:54.147Z,6.03
2018-05-02T03:13:27.779Z,7.07
2018-05-02T03:16:31.241Z,7.87
2018-05-02T03:19:06.930Z,6.73
2018-05-02T03:21:53.231Z,3.33
2018-05-02T03:24:22.824Z,6.07
2018-05-02T03:26:55.806Z,6.07
2018-05-02T03:29:27.241Z,3.63
2018-05-02T03:42:15.383Z,6.40
2018-05-02T03:44:48.019Z,7.47
2018-05-02T04:17:56.638Z,5.33
2018-05-02T04:20:28.918Z,9.27
2018-05-02T04:23:01.392Z,6.77
2018-05-02T04:25:37.057Z,5.97
2018-05-02T04:28:08.146Z,7.73
2018-05-02T04:30:43.660Z,6.33
2018-05-02T04:33:36.214Z,5.53
2018-05-02T04:36:05.470Z,4.33
2018-05-02T04:38:36.100Z,5.53
2018-05-02T04:41:11.330Z,6.27
2018-05-02T04:43:57.264Z,4.30
2018-05-02T04:46:38.857Z,4.70
2018-05-02T04:49:07.874Z,5.83
2018-05-02T04:51:40.103Z,4.47
2018-05-02T04:54:07.808Z,7.87
2018-05-02T04:56:39.236Z,8.60
2018-05-02T04:59:09.813Z,4.33
2018-05-02T05:01:44.666Z,6.23
2018-05-02T05:04:52.700Z,6.23
2018-05-02T05:07:24.712Z,5.40
2018-05-02T05:09:59.784Z,7.10
2018-05-02T05:12:29.961Z,6.13
2018-05-02T05:15:11.951Z,4.87
2018-05-02T05:17:48.929Z,6.30
2018-05-02T05:20:59.249Z,6.40
2018-05-02T05:23:33.567Z,6.97
2018-05-02T05:26:02.377Z,4.80
2018-05-02T05:28:31.881Z,4.87
2018-05-02T05:31:05.723Z,4.47
2018-05-02T05:33:35.797Z,6.73
2018-05-02T05:36:07.247Z,4.87
2018-05-02T05:38:39.938Z,5.17
2018-05-02T05:41:10.344Z,6.43
2018-05-02T05:43:38.675Z,7.10
2018-05-02T05:46:08.081Z,6.00
2018-05-02T05:48:35.634Z,5.10
2018-05-02T05:51:11.025Z,5.27
2018-05-02T05:53:49.195Z,4.40
2018-05-02T05:56:22.477Z,8.97
2018-05-02T05:58:58.617Z,5.60
2018-05-02T06:01:30.773Z,7.47
2018-05-02T06:04:45.852Z,7.13
2018-05-02T06:07:14.045Z,5.03
2018-05-02T06:09:45.189Z,4.77
2018-05-02T06:12:13.481Z,5.73
2018-05-02T06:14:41.193Z,5.10
2018-05-02T06:17:23.080Z,4.70
2018-05-02T06:20:41.249Z,7.97
2018-05-02T06:23:10.505Z,5.70
2018-05-02T06:25:38.038Z,5.93
2018-05-02T06:28:12.911Z,5.87
2018-05-02T06:30:40.988Z,4.83
2018-05-02T06:33:19.104Z,4.90
2018-05-02T06:36:07.961Z,6.23
2018-05-02T06:38:40.499Z,5.23
2018-05-02T06:41:09.436Z,8.93
2018-05-02T06:43:37.293Z,6.40
2018-05-02T06:46:11.723Z,5.67
2018-05-02T06:48:50.435Z,6.33
2018-05-02T06:51:55.139Z,6.40
2018-05-02T06:54:28.733Z,6.10
2018-05-02T06:57:01.785Z,4.43
2018-05-02T06:59:32.259Z,5.00
2018-05-02T07:02:02.110Z,5.53
2018-05-02T07:07:27.846Z,4.40
2018-05-02T07:10:03.840Z,6.93
2018-05-02T07:12:37.520Z,4.30
2018-05-02T07:15:08.858Z,6.53
2018-05-02T07:17:40.693Z,5.70
2018-05-02T07:20:21.136Z,7.40
2018-05-02T07:43:21.351Z,8.40
2018-05-02T07:46:07.064Z,8.27
2018-05-02T07:48:43.239Z,3.90
2018-05-02T08:00:40.148Z,5.87
2018-05-02T08:03:18.591Z,6.53
2018-05-02T08:05:58.341Z,7.03
2018-05-02T08:34:47.084Z,4.33
2018-05-02T08:50:26.011Z,2.63
2018-05-02T09:05:49.867Z,2.20
2018-05-02T09:08:22.298Z,3.23
2018-05-02T09:10:55.921Z,2.53
2018-05-02T09:13:32.449Z,1.80
2018-05-02T09:16:10.926Z,2.70
2018-05-02T09:18:42.962Z,3.40
2018-05-02T09:21:13.340Z,1.80
2018-05-02T09:23:43.072Z,1.80
2018-05-02T09:26:11.945Z,2.10
2018-05-02T09:46:17.337Z,1.83
2018-05-02T09:48:47.792Z,1.47
2018-05-02T09:51:19.316Z,1.97
2018-05-02T09:54:12.131Z,1.67
2018-05-02T09:56:48.537Z,1.93
2018-05-02T09:59:21.890Z,1.83
2018-05-02T10:01:54.616Z,1.83
2018-05-02T10:04:28.416Z,2.30
2018-05-02T10:07:02.526Z,2.67
2018-05-02T10:09:39.554Z,1.80
2018-05-02T10:12:14.584Z,2.53
2018-05-02T10:14:44.935Z,2.47
2018-05-02T10:17:14.510Z,1.90
2018-05-02T10:19:45.055Z,2.10
2018-05-02T10:22:13.928Z,2.23
2018-05-02T10:24:51.805Z,2.27
2018-05-02T10:27:21.322Z,2.53
2018-05-02T10:29:54.086Z,2.50
2018-05-02T10:32:23.648Z,2.13
2018-05-02T10:34:54.601Z,2.20
2018-05-02T10:37:24.084Z,3.00
2018-05-02T10:40:10.508Z,1.80
2018-05-02T10:42:39.396Z,2.73
2018-05-02T10:45:15.016Z,1.93
2018-05-02T10:47:47.957Z,3.13
2018-05-02T10:50:21.677Z,1.60
2018-05-02T10:52:58.915Z,2.30
2018-05-02T11:01:53.248Z,1.30
2018-05-02T11:04:29.117Z,1.60
2018-05-02T11:07:10.035Z,1.83
2018-05-02T11:09:41.556Z,3.17
2018-05-02T11:12:15.728Z,1.47
2018-05-02T11:27:40.689Z,1.10
2018-05-02T11:30:10.292Z,1.30
2018-05-02T11:32:41.084Z,2.20
2018-05-02T11:35:18.792Z,2.37
2018-05-02T11:37:52.917Z,1.13
2018-05-02T11:40:29.483Z,1.20
2018-05-02T11:43:07.755Z,1.83
2018-05-02T11:45:39.646Z,0.90
2018-05-02T11:48:16.566Z,1.33
2018-05-02T11:50:55.157Z,1.37
2018-05-02T11:53:27.778Z,1.60
2018-05-02T11:56:04.830Z,0.80
2018-05-02T11:58:36.816Z,1.37
2018-05-02T12:01:06.132Z,1.93
2018-05-02T12:03:36.321Z,1.00
2018-05-02T12:06:08.384Z,2.60
2018-05-02T12:08:39.293Z,0.97
2018-05-02T12:11:10.906Z,0.80
2018-05-02T12:13:40.884Z,2.33
2018-05-02T12:16:19.408Z,0.97
2018-05-02T12:18:56.461Z,1.27
2018-05-02T12:21:31.521Z,1.13
2018-05-02T12:24:06.102Z,1.43
2018-05-02T12:26:57.272Z,1.00
2018-05-02T12:29:29.833Z,1.07
2018-05-02T12:31:59.413Z,1.40
2018-05-02T12:34:28.302Z,1.43
2018-05-02T12:37:00.226Z,1.13
2018-05-02T12:39:31.317Z,1.93
2018-05-02T12:42:05.881Z,1.93
2018-05-02T12:44:36.514Z,1.30
2018-05-02T12:47:08.756Z,1.20
2018-05-02T12:49:42.688Z,1.13
2018-05-02T12:52:20.943Z,1.40
2018-05-02T12:54:53.658Z,2.53
2018-05-02T13:13:35.071Z,1.63
2018-05-02T13:16:15.341Z,2.13
2018-05-02T13:18:47.491Z,1.70
2018-05-02T13:21:26.610Z,1.23
2018-05-02T13:23:57.899Z,2.13
2018-05-02T13:26:32.930Z,1.40
2018-05-02T13:35:21.682Z,2.40
2018-05-02T13:37:55.243Z,1.47
2018-05-02T13:40:34.563Z,1.60
2018-05-02T13:43:07.611Z,1.73
2018-05-02T13:45:40.454Z,1.83
2018-05-02T13:48:09.796Z,4.87
2018-05-02T13:50:39.371Z,2.43
2018-05-02T13:53:10.241Z,3.97
2018-05-02T13:55:44.889Z,2.13
2018-05-02T14:02:04.261Z,4.40
2018-05-02T14:04:41.238Z,2.27
2018-05-02T14:07:16.828Z,1.80
2018-05-02T14:09:49.913Z,1.80
2018-05-02T14:12:23.422Z,1.77
2018-05-02T14:14:59.535Z,2.73
2018-05-02T14:17:30.389Z,2.00
2018-05-02T14:20:00.930Z,1.37
2018-05-02T14:22:29.892Z,1.30
2018-05-02T14:24:58.780Z,1.97
2018-05-02T14:27:34.231Z,3.00
2018-05-02T14:30:09.273Z,1.47
2018-05-02T14:32:47.984Z,1.60
2018-05-02T14:35:17.397Z,1.50
2018-05-02T14:37:47.409Z,1.37
2018-05-02T14:40:17.795Z,1.40
2018-05-02T14:42:48.852Z,1.67
2018-05-02T14:45:19.397Z,1.93
2018-05-02T14:47:56.322Z,3.03
2018-05-02T14:50:26.075Z,2.00
2018-05-02T14:52:57.148Z,1.47
2018-05-02T14:55:26.339Z,1.97
2018-05-02T14:58:07.922Z,1.57
2018-05-02T15:06:56.239Z,1.60
2018-05-02T15:09:33.957Z,1.53
2018-05-02T15:12:03.756Z,2.13
2018-05-02T15:14:35.691Z,1.50
2018-05-02T15:17:11.372Z,2.43
2018-05-02T15:19:47.630Z,2.00
2018-05-02T15:22:26.391Z,1.70
2018-05-02T15:24:58.515Z,1.97
2018-05-02T15:27:32.008Z,1.57
2018-05-02T15:30:00.945Z,1.60
2018-05-02T15:32:40.078Z,1.53
2018-05-02T15:35:18.029Z,3.40
2018-05-02T15:37:51.599Z,1.80
2018-05-02T15:40:25.088Z,1.53
2018-05-02T15:43:01.445Z,1.80
2018-05-02T15:51:52.766Z,1.73
2018-05-02T15:54:28.997Z,1.73
2018-05-02T16:03:31.219Z,2.10
2018-05-02T16:06:01.522Z,1.87
2018-05-02T16:08:42.468Z,1.73
2018-05-02T16:11:21.098Z,2.53
2018-05-02T16:13:52.784Z,2.03
2018-05-02T16:16:30.257Z,1.83
2018-05-02T16:19:03.482Z,1.90
2018-05-02T16:21:39.920Z,1.90
2018-05-02T16:24:09.948Z,1.77
2018-05-02T16:26:43.478Z,1.70
2018-05-02T16:29:29.076Z,3.17
2018-05-02T16:51:04.137Z,1.40
2018-05-02T16:53:36.616Z,1.63
2018-05-02T16:56:58.751Z,1.10
2018-05-02T16:59:44.969Z,1.70
2018-05-02T17:05:50.398Z,1.53
2018-05-02T17:11:42.964Z,1.77
2018-05-02T17:14:24.335Z,1.30
2018-05-02T17:26:33.935Z,1.97
2018-05-02T17:29:10.530Z,2.00
2018-05-02T17:32:15.937Z,1.43
2018-05-02T17:35:04.320Z,1.40
2018-05-02T17:37:38.152Z,2.17
2018-05-02T17:40:17.905Z,2.93
2018-05-02T17:42:57.061Z,2.47
2018-05-02T17:45:43.051Z,2.13
2018-05-02T18:04:14.486Z,2.50
2018-05-02T18:09:36.569Z,2.43
2018-05-02T18:12:28.927Z,2.80
2018-05-02T18:15:06.100Z,2.83
2018-05-02T18:17:39.499Z,1.50
2018-05-02T18:20:23.198Z,2.67
2018-05-02T18:25:39.568Z,1.97
2018-05-02T18:28:16.304Z,2.60
2018-05-02T18:30:57.644Z,2.93
2018-05-02T18:42:57.426Z,3.23
2018-05-02T18:45:45.108Z,1.57
2018-05-02T18:54:38.637Z,2.57
2018-05-02T18:57:19.606Z,2.43
2018-05-02T19:00:05.729Z,2.60
2018-05-02T19:02:40.520Z,2.17
2018-05-02T19:41:57.475Z,2.50
2018-05-02T19:44:48.614Z,4.90
2018-05-02T19:47:32.399Z,4.53
2018-05-02T19:53:59.307Z,4.87
2018-05-02T19:56:44.105Z,3.90
2018-05-02T19:59:35.870Z,4.40
2018-05-02T20:02:27.827Z,5.20
2018-05-02T20:28:45.402Z,4.33
2018-05-02T20:34:12.093Z,6.03
2018-05-02T20:40:08.609Z,4.80
2018-05-02T20:45:57.292Z,3.33
2018-05-02T20:49:00.265Z,5.00
2018-05-02T21:22:02.978Z,3.40
2018-05-02T21:24:38.820Z,4.47
2018-05-02T21:27:13.713Z,4.00
2018-05-02T21:29:47.623Z,4.27
2018-05-02T22:31:02.907Z,6.73
2018-05-02T22:33:45.658Z,8.07
2018-05-02T22:36:23.346Z,5.57
2018-05-02T22:38:53.049Z,5.03
2018-05-02T22:54:25.969Z,4.87
2018-05-02T22:57:04.674Z,6.40
2018-05-02T23:02:17.203Z,8.87
2018-05-02T23:04:57.774Z,5.87
2018-05-02T23:10:37.664Z,6.30
2018-05-02T23:13:07.711Z,9.03
2018-05-02T23:15:44.579Z,7.17
2018-05-02T23:18:16.288Z,6.50
2018-05-02T23:20:47.076Z,6.10
2018-05-02T23:23:21.413Z,6.87
2018-05-02T23:26:37.233Z,7.47
2018-05-02T23:29:12.240Z,9.13
2018-05-02T23:31:49.337Z,7.77
2018-05-02T23:34:20.171Z,7.17
2018-05-02T23:37:11.695Z,4.83
2018-05-02T23:40:01.778Z,10.17
2018-05-02T23:42:36.474Z,7.63
2018-05-02T23:45:08.304Z,9.40
2018-05-02T23:47:38.034Z,5.97
2018-05-02T23:50:08.720Z,7.37
2018-05-02T23:52:41.022Z,6.10
2018-05-02T23:55:38.127Z,6.07
2018-05-02T23:58:12.726Z,6.50
